Villarejo de Salvanes, Spain
Current Conditions -  °F | °C
As of 11:00 PM on Monday 26 Jan 2015 (Local Time) from LETO Reporting Station
Clear Clear  
Wind Chill: 41°   Ceiling: Unl
Heat Index: 45°   Visibility: 6mi
Dew Point: 27°   Wind: 6mph
Humidity: 49%   Direction: 50°NE
Pressure: 30.39"   Gusts: NA
Location:  40.17°N, 3.27°W
Report Text: LETO 262200Z 05005KT CAVOK 07/M03 Q1029 NOSIG
Loading
Personal Weather Stations






























Interactive Weather Map New forecast layout! Learn more

10-Day Weather Forecast

Advertisements
Track Severe Weather on mobile